createdAt,value
2023-04-01T00:01:35.340Z,9.37
2023-04-01T00:04:38.309Z,9.32
2023-04-01T00:07:41.404Z,9.36
2023-04-01T00:10:44.460Z,9.34
2023-04-01T00:13:46.999Z,9.32
2023-04-01T00:16:49.977Z,9.18
2023-04-01T00:19:53.005Z,9.20
2023-04-01T00:22:56.152Z,9.17
2023-04-01T00:26:03.539Z,9.21
2023-04-01T00:29:08.755Z,9.21
2023-04-01T00:32:13.729Z,9.21
2023-04-01T00:35:16.886Z,9.24
2023-04-01T00:38:19.792Z,9.16
2023-04-01T00:41:22.945Z,9.20
2023-04-01T00:44:27.931Z,9.16
2023-04-01T00:47:31.090Z,9.05
2023-04-01T00:50:35.697Z,9.03
2023-04-01T00:53:46.745Z,9.01
2023-04-01T00:56:56.910Z,9.01
2023-04-01T01:00:00.906Z,8.94
2023-04-01T01:03:03.824Z,8.94
2023-04-01T01:06:24.242Z,9.08
2023-04-01T01:09:52.599Z,9.07
2023-04-01T01:12:58.891Z,9.06
2023-04-01T01:16:07.511Z,9.01
2023-04-01T01:19:55.688Z,8.97
2023-04-01T01:23:25.992Z,8.80
2023-04-01T01:26:59.688Z,8.80
2023-04-01T01:30:21.232Z,8.87
2023-04-01T01:33:42.936Z,8.99
2023-04-01T01:36:49.850Z,8.93
2023-04-01T01:40:01.175Z,8.97
2023-04-01T01:43:09.692Z,9.10
2023-04-01T01:46:17.067Z,8.99
2023-04-01T01:49:21.104Z,8.99
2023-04-01T01:52:24.790Z,8.98
2023-04-01T01:55:36.322Z,8.90
2023-04-01T01:58:48.717Z,9.03
2023-04-01T02:01:54.737Z,9.03
2023-04-01T02:05:01.601Z,9.10
2023-04-01T02:08:19.425Z,9.12
2023-04-01T02:11:33.214Z,9.11
2023-04-01T02:14:54.907Z,9.12
2023-04-01T02:17:58.671Z,9.07
2023-04-01T02:21:01.977Z,9.10
2023-04-01T02:24:09.038Z,9.10
2023-04-01T02:27:12.162Z,9.05
2023-04-01T02:30:17.928Z,9.01
2023-04-01T02:33:22.544Z,9.06
2023-04-01T02:36:26.113Z,9.08
2023-04-01T02:39:29.555Z,9.05
2023-04-01T02:42:32.357Z,9.10
2023-04-01T02:45:35.620Z,9.03
2023-04-01T02:48:38.776Z,9.15
2023-04-01T02:51:43.782Z,9.12
2023-04-01T02:54:47.280Z,9.04
2023-04-01T02:57:51.271Z,9.00
2023-04-01T03:00:54.262Z,8.98
2023-04-01T03:03:57.348Z,9.02
2023-04-01T03:07:00.583Z,8.90
2023-04-01T03:10:03.624Z,8.87
2023-04-01T03:13:07.512Z,8.82
2023-04-01T03:16:15.828Z,8.71
2023-04-01T03:19:18.688Z,8.68
2023-04-01T03:22:22.106Z,8.64
2023-04-01T03:25:25.498Z,8.59
2023-04-01T03:28:28.487Z,8.56
2023-04-01T03:31:31.339Z,8.57
2023-04-01T03:34:34.459Z,8.64
2023-04-01T03:37:37.162Z,8.59
2023-04-01T03:40:44.019Z,8.57
2023-04-01T03:43:59.715Z,8.52
2023-04-01T03:47:04.679Z,8.49
2023-04-01T03:50:08.983Z,8.49
2023-04-01T03:53:12.291Z,8.42
2023-04-01T03:56:17.744Z,8.35
2023-04-01T03:59:20.837Z,8.36
2023-04-01T04:02:23.603Z,8.45
2023-04-01T04:05:27.400Z,8.45
2023-04-01T04:08:30.975Z,8.45
2023-04-01T04:11:34.191Z,8.47
2023-04-01T04:14:36.922Z,8.46
2023-04-01T04:17:40.637Z,8.33
2023-04-01T04:20:52.074Z,8.28
2023-04-01T04:23:55.116Z,8.16
2023-04-01T04:26:57.842Z,8.20
2023-04-01T04:30:00.958Z,8.24
2023-04-01T04:33:03.835Z,8.26
2023-04-01T04:36:07.764Z,8.33
2023-04-01T04:39:10.484Z,8.28
2023-04-01T04:42:14.050Z,8.33
2023-04-01T04:45:17.036Z,8.96
2023-04-01T04:48:21.358Z,8.82
2023-04-01T04:51:24.724Z,8.80
2023-04-01T04:54:28.036Z,8.86
2023-04-01T04:57:32.851Z,8.85
2023-04-01T05:00:36.378Z,8.85
2023-04-01T05:03:42.132Z,8.79
2023-04-01T05:06:46.133Z,8.85
2023-04-01T05:09:49.386Z,8.85
2023-04-01T05:12:52.504Z,8.91
2023-04-01T05:15:55.663Z,8.93
2023-04-01T05:18:58.940Z,9.01
2023-04-01T05:22:02.200Z,9.12
2023-04-01T05:25:05.666Z,9.22
2023-04-01T05:28:08.912Z,9.26
2023-04-01T05:31:11.966Z,9.57
2023-04-01T05:34:15.291Z,10.12
2023-04-01T05:37:18.604Z,10.38
2023-04-01T05:40:21.547Z,10.57
2023-04-01T05:43:24.485Z,10.81
2023-04-01T05:46:29.403Z,11.05
2023-04-01T05:49:36.599Z,11.09
2023-04-01T05:52:39.802Z,11.53
2023-04-01T05:55:43.561Z,11.46
2023-04-01T05:58:54.985Z,11.98
2023-04-01T06:01:59.951Z,12.16
2023-04-01T06:05:25.031Z,12.33
2023-04-01T06:08:29.136Z,12.32
2023-04-01T06:11:38.451Z,12.17
2023-04-01T06:14:44.688Z,11.86
2023-04-01T06:18:30.030Z,11.38
2023-04-01T06:21:36.073Z,11.47
2023-04-01T06:24:49.540Z,11.88
2023-04-01T06:27:55.633Z,11.77
2023-04-01T06:31:04.671Z,11.83
2023-04-01T06:34:30.282Z,11.96
2023-04-01T06:37:52.025Z,11.97
2023-04-01T06:41:17.868Z,12.16
2023-04-01T06:44:43.017Z,12.23
2023-04-01T06:48:25.632Z,12.85
2023-04-01T06:51:45.625Z,13.14
2023-04-01T06:54:59.013Z,13.92
2023-04-01T06:58:27.510Z,14.34
2023-04-01T07:01:38.070Z,14.25
2023-04-01T07:04:49.957Z,14.62
2023-04-01T07:07:56.874Z,14.38
2023-04-01T07:11:08.117Z,14.62
2023-04-01T07:14:31.644Z,15.14
2023-04-01T07:17:40.550Z,14.67
2023-04-01T07:20:43.895Z,15.18
2023-04-01T07:23:48.423Z,15.64
2023-04-01T07:26:57.050Z,15.47
2023-04-01T07:30:13.913Z,15.43
2023-04-01T07:33:25.647Z,15.84
2023-04-01T07:36:46.686Z,16.17
2023-04-01T07:40:32.054Z,16.16
2023-04-01T07:43:41.950Z,16.63
2023-04-01T07:47:14.770Z,16.33
2023-04-01T07:50:17.894Z,16.61
2023-04-01T07:53:31.724Z,16.27
2023-04-01T07:57:10.764Z,16.69
2023-04-01T08:00:23.117Z,16.49
2023-04-01T08:03:39.262Z,16.87
2023-04-01T08:07:00.905Z,17.38
2023-04-01T08:10:13.200Z,17.20
2023-04-01T08:13:33.267Z,17.40
2023-04-01T08:16:54.524Z,17.64
2023-04-01T08:20:33.394Z,17.06
2023-04-01T08:23:46.183Z,17.74
2023-04-01T08:26:54.288Z,16.67
2023-04-01T08:29:59.673Z,16.98
2023-04-01T08:33:12.153Z,16.29
2023-04-01T08:36:30.806Z,17.10
2023-04-01T08:39:42.975Z,17.28
2023-04-01T08:43:11.306Z,17.67
2023-04-01T08:46:38.810Z,16.68
2023-04-01T08:50:19.350Z,16.60
2023-04-01T08:53:48.336Z,16.69
2023-04-01T08:57:00.845Z,16.59
2023-04-01T09:00:32.838Z,16.68
2023-04-01T09:03:58.953Z,16.75
2023-04-01T09:07:25.559Z,16.20
2023-04-01T09:10:40.266Z,17.24
2023-04-01T09:14:21.382Z,17.23
2023-04-01T09:17:55.199Z,16.98
2023-04-01T09:21:42.303Z,17.04
2023-04-01T09:25:16.610Z,17.08
2023-04-01T09:28:39.878Z,17.72
2023-04-01T09:31:51.125Z,16.41
2023-04-01T09:35:14.495Z,17.60
2023-04-01T09:38:32.622Z,17.34
2023-04-01T09:42:23.653Z,18.86
2023-04-01T09:45:48.312Z,19.14
2023-04-01T09:49:14.793Z,17.36
2023-04-01T09:52:33.772Z,17.29
2023-04-01T09:56:12.185Z,17.08
2023-04-01T09:59:46.026Z,16.95
2023-04-01T10:03:25.718Z,15.50
2023-04-01T10:07:03.861Z,15.65
2023-04-01T10:10:32.651Z,14.96
2023-04-01T10:13:44.372Z,15.34
2023-04-01T10:17:15.424Z,15.42
2023-04-01T10:20:36.712Z,15.95
2023-04-01T10:23:40.936Z,16.06
2023-04-01T10:26:54.714Z,15.90
2023-04-01T10:30:16.406Z,15.29
2023-04-01T10:33:47.603Z,15.49
2023-04-01T10:36:57.071Z,15.78
2023-04-01T10:40:27.859Z,15.68
2023-04-01T10:43:56.281Z,15.40
2023-04-01T10:47:36.944Z,15.98
2023-04-01T10:51:03.113Z,15.43
2023-04-01T10:54:21.612Z,15.11
2023-04-01T10:57:31.455Z,15.32
2023-04-01T11:01:03.734Z,15.98
2023-04-01T11:04:49.837Z,15.70
2023-04-01T11:08:17.777Z,15.93
2023-04-01T11:11:57.730Z,15.87
2023-04-01T11:15:27.504Z,16.59
2023-04-01T11:18:53.078Z,16.61
2023-04-01T11:22:23.318Z,16.00
2023-04-01T11:25:54.867Z,15.56
2023-04-01T11:29:58.773Z,15.78
2023-04-01T11:33:21.441Z,15.59
2023-04-01T11:36:52.653Z,15.88
2023-04-01T11:40:20.311Z,15.82
2023-04-01T11:43:44.064Z,16.11
2023-04-01T11:46:58.080Z,16.03
2023-04-01T11:50:10.170Z,15.93
2023-04-01T11:53:20.466Z,15.39
2023-04-01T11:56:29.507Z,15.11
2023-04-01T11:59:53.761Z,15.45
2023-04-01T12:03:21.165Z,15.41
2023-04-01T12:06:46.348Z,14.87
2023-04-01T12:10:13.710Z,14.56
2023-04-01T12:13:43.747Z,14.88
2023-04-01T12:17:00.691Z,14.68
2023-04-01T12:20:28.077Z,14.87
2023-04-01T12:23:51.373Z,14.78
2023-04-01T12:27:17.111Z,15.02
2023-04-01T12:30:44.352Z,15.23
2023-04-01T12:34:20.659Z,15.55
2023-04-01T12:37:41.094Z,16.25
2023-04-01T12:41:12.486Z,16.10
2023-04-01T12:44:43.083Z,16.10
2023-04-01T12:48:07.676Z,15.85
2023-04-01T12:51:13.059Z,16.41
2023-04-01T12:54:39.309Z,16.69
2023-04-01T12:58:23.793Z,16.88
2023-04-01T13:01:51.078Z,16.80
2023-04-01T13:05:12.848Z,16.68
2023-04-01T13:08:51.814Z,17.30
2023-04-01T13:11:54.513Z,17.17
2023-04-01T13:15:17.475Z,17.24
2023-04-01T13:18:29.770Z,17.16
2023-04-01T13:21:47.937Z,17.17
2023-04-01T13:25:07.686Z,17.11
2023-04-01T13:28:33.120Z,17.24
2023-04-01T13:31:51.012Z,17.36
2023-04-01T13:35:02.912Z,17.27
2023-04-01T13:38:30.712Z,16.74
2023-04-01T13:41:55.958Z,16.98
2023-04-01T13:45:06.409Z,17.17
2023-04-01T13:48:44.444Z,17.34
2023-04-01T13:52:08.215Z,16.87
2023-04-01T13:55:20.708Z,16.94
2023-04-01T13:58:44.130Z,16.51
2023-04-01T14:02:21.365Z,16.26
2023-04-01T14:05:45.508Z,16.13
2023-04-01T14:09:10.219Z,16.27
2023-04-01T14:12:51.991Z,15.96
2023-04-01T14:16:24.252Z,16.18
2023-04-01T14:19:43.826Z,16.15
2023-04-01T14:23:01.790Z,16.07
2023-04-01T14:26:27.808Z,15.84
2023-04-01T14:29:45.780Z,15.68
2023-04-01T14:33:18.755Z,16.17
2023-04-01T14:36:50.279Z,15.65
2023-04-01T14:40:12.236Z,15.13
2023-04-01T14:43:42.642Z,14.71
2023-04-01T14:47:07.577Z,14.78
2023-04-01T14:50:25.976Z,15.20
2023-04-01T14:53:46.523Z,15.27
2023-04-01T14:57:19.990Z,15.13
2023-04-01T15:00:23.326Z,15.06
2023-04-01T15:03:29.098Z,14.94
2023-04-01T15:06:54.064Z,14.93
2023-04-01T15:10:21.100Z,14.95
2023-04-01T15:13:30.609Z,15.23
2023-04-01T15:16:51.797Z,14.93
2023-04-01T15:20:15.214Z,15.04
2023-04-01T15:23:33.141Z,15.29
2023-04-01T15:26:58.411Z,14.91
2023-04-01T15:30:16.619Z,15.27
2023-04-01T15:33:33.074Z,14.94
2023-04-01T15:36:41.853Z,14.91
2023-04-01T15:40:08.204Z,15.02
2023-04-01T15:43:49.664Z,14.98
2023-04-01T15:46:53.371Z,14.87
2023-04-01T15:54:04.795Z,14.89
2023-04-01T15:57:29.085Z,14.69
2023-04-01T16:00:43.197Z,14.86
2023-04-01T16:04:07.995Z,15.02
2023-04-01T16:07:26.958Z,14.76
2023-04-01T16:11:05.064Z,14.94
2023-04-01T16:14:26.325Z,14.98
2023-04-01T16:17:53.551Z,14.93
2023-04-01T16:21:06.769Z,14.89
2023-04-01T16:24:45.736Z,14.78
2023-04-01T16:27:48.488Z,14.79
2023-04-01T16:31:10.404Z,14.84
2023-04-01T16:34:23.272Z,14.82
2023-04-01T16:37:38.894Z,14.91
2023-04-01T16:41:05.746Z,14.84
2023-04-01T16:44:25.217Z,14.86
2023-04-01T16:47:37.140Z,14.68
2023-04-01T16:50:48.462Z,14.70
2023-04-01T16:54:11.864Z,14.73
2023-04-01T16:57:21.224Z,14.48
2023-04-01T17:00:42.841Z,14.42
2023-04-01T17:03:50.514Z,14.48
2023-04-01T17:07:03.434Z,14.35
2023-04-01T17:10:42.888Z,14.24
2023-04-01T17:14:07.866Z,14.26
2023-04-01T17:17:36.316Z,14.22
2023-04-01T17:21:03.245Z,14.12
2023-04-01T17:24:07.052Z,14.11
2023-04-01T17:27:28.855Z,14.10
2023-04-01T17:30:47.158Z,14.08
2023-04-01T17:33:59.566Z,13.79
2023-04-01T17:37:40.128Z,13.92
2023-04-01T17:40:55.297Z,13.84
2023-04-01T17:44:24.913Z,13.74
2023-04-01T17:48:01.706Z,13.69
2023-04-01T17:51:29.284Z,13.57
2023-04-01T17:54:41.144Z,13.47
2023-04-01T17:57:57.130Z,13.40
2023-04-01T18:01:09.889Z,13.39
2023-04-01T18:04:37.914Z,13.34
2023-04-01T18:08:12.488Z,13.37
2023-04-01T18:11:18.674Z,13.30
2023-04-01T18:14:21.998Z,13.23
2023-04-01T18:17:33.803Z,13.09
2023-04-01T18:20:52.324Z,13.14
2023-04-01T18:24:14.593Z,13.03
2023-04-01T18:27:30.739Z,12.90
2023-04-01T18:30:36.028Z,12.91
2023-04-01T18:33:50.491Z,12.94
2023-04-01T18:37:00.615Z,12.99
2023-04-01T18:40:33.822Z,12.86
2023-04-01T18:43:59.599Z,12.79
2023-04-01T18:47:36.409Z,12.89
2023-04-01T18:50:52.394Z,12.78
2023-04-01T18:54:09.224Z,12.72
2023-04-01T18:57:15.878Z,12.63
2023-04-01T19:00:29.121Z,12.58
2023-04-01T19:04:20.738Z,12.66
2023-04-01T19:07:50.074Z,12.64
2023-04-01T19:11:28.985Z,12.54
2023-04-01T19:14:43.594Z,12.34
2023-04-01T19:18:03.473Z,12.28
2023-04-01T19:21:37.878Z,12.14
2023-04-01T19:25:18.574Z,12.07
2023-04-01T19:28:40.371Z,11.98
2023-04-01T19:32:02.929Z,11.90
2023-04-01T19:35:27.405Z,11.86
2023-04-01T19:38:43.262Z,11.84
2023-04-01T19:41:56.858Z,11.96
2023-04-01T19:45:15.194Z,12.28
2023-04-01T19:48:44.122Z,11.92
2023-04-01T19:52:14.410Z,11.77
2023-04-01T19:55:44.092Z,11.79
2023-04-01T19:59:05.790Z,11.86
2023-04-01T20:02:08.853Z,11.73
2023-04-01T20:05:42.488Z,11.72
2023-04-01T20:09:05.459Z,11.63
2023-04-01T20:12:27.269Z,11.51
2023-04-01T20:15:29.976Z,11.54
2023-04-01T20:18:50.441Z,11.58
2023-04-01T20:21:58.832Z,11.54
2023-04-01T20:25:22.539Z,11.40
2023-04-01T20:28:46.121Z,11.43
2023-04-01T20:32:30.190Z,11.35
2023-04-01T20:36:09.336Z,11.42
2023-04-01T20:39:34.975Z,11.44
2023-04-01T20:43:06.943Z,11.32
2023-04-01T20:46:37.218Z,11.48
2023-04-01T20:49:43.107Z,11.47
2023-04-01T20:53:06.946Z,11.37
2023-04-01T20:56:31.420Z,11.26
2023-04-01T21:00:04.829Z,11.15
2023-04-01T21:03:35.243Z,11.10
2023-04-01T21:06:50.201Z,10.82
2023-04-01T21:10:13.628Z,10.77
2023-04-01T21:13:35.856Z,10.91
2023-04-01T21:17:17.227Z,10.67
2023-04-01T21:20:20.504Z,10.54
2023-04-01T21:23:59.384Z,10.34
2023-04-01T21:27:30.510Z,10.21
2023-04-01T21:31:03.847Z,10.13
2023-04-01T21:34:57.808Z,9.93
2023-04-01T21:38:31.169Z,9.92
2023-04-01T21:42:26.703Z,9.89
2023-04-01T21:46:02.924Z,9.86
2023-04-01T21:49:25.492Z,9.73
2023-04-01T21:52:57.930Z,9.73
2023-04-01T21:56:19.452Z,9.68
2023-04-01T21:59:47.318Z,9.58
2023-04-01T22:03:06.095Z,9.58
2023-04-01T22:06:23.908Z,9.51
2023-04-01T22:09:38.926Z,9.40
2023-04-01T22:12:51.459Z,9.34
2023-04-01T22:16:05.596Z,9.47
2023-04-01T22:19:54.360Z,9.43
2023-04-01T22:22:59.996Z,9.57
2023-04-01T22:26:11.040Z,9.35
2023-04-01T22:29:32.808Z,9.55
2023-04-01T22:32:54.055Z,9.62
2023-04-01T22:36:38.765Z,9.82
2023-04-01T22:40:06.129Z,10.03
2023-04-01T22:43:43.238Z,10.16
2023-04-01T22:46:55.908Z,10.17
2023-04-01T22:50:39.348Z,10.12
2023-04-01T22:53:48.139Z,10.26
2023-04-01T22:56:55.024Z,10.27
2023-04-01T23:00:18.718Z,10.21
2023-04-01T23:03:41.834Z,10.22
2023-04-01T23:06:51.323Z,10.24
2023-04-01T23:09:57.762Z,10.31
2023-04-01T23:13:04.615Z,10.27
2023-04-01T23:16:09.535Z,10.36
2023-04-01T23:19:58.666Z,10.31
2023-04-01T23:23:32.332Z,10.26
2023-04-01T23:26:51.040Z,10.24
2023-04-01T23:29:53.682Z,10.23
2023-04-01T23:33:31.475Z,10.11
2023-04-01T23:36:41.252Z,10.13
2023-04-01T23:39:48.459Z,10.16
2023-04-01T23:42:51.753Z,10.07
2023-04-01T23:45:57.399Z,10.03
2023-04-01T23:49:02.114Z,9.99
2023-04-01T23:52:27.383Z,9.96
2023-04-01T23:55:35.801Z,9.83
2023-04-01T23:58:39.173Z,9.80
